CU-0046 weather

Public forecast

Using degrees Celsius for public forecast. Weather courtesy of forecast.io.

Closest aviation weather report (METAR) to Amansa Guapos Airport

Closest report is Ignacio Agramonte International Airport, 23.6 nm (43.8 km) ENE. Retrieved 2020/08/15 14:50 UTC (58 minutes ago):

MUCM 151450Z 06010KT 040V100 9000 SCT018 31/25 Q1015

Closest aviation forecast (TAF) to Amansa Guapos Airport

Closest forecast is Ignacio Agramonte International Airport, 23.6 nm (43.8 km) ENE. Retrieved 2020/08/15 12:06 UTC (4 hours ago):

TAF MUCM 151100Z 1512/1612 07005KT 9000 SCT018 BECMG 1515/1517 05012KT TEMPO 1518/1524 5000 SHRA FEW018CB BKN020 BECMG 1601/1603 04005KT